ilmateenistus.ee keskkonnaagentuur.ee
EETN Tallinna lennuväli
FTEO31 EETN 192300
TAF EETN 192300Z 2000/2024 22009KT 9999 SCT012 PROB40 TEMPO 2000/2005
    2000 BR BKN005 BECMG 2010/2012 SCT025CB SCT040 PROB40 TEMPO 2012/2018
    4000 SHRA=

METAR EETN 200150Z 21008KT 9999 FEW006 15/14 Q1013 =
Tallinna lennuväli
EEKA Kärdla lennuväli
METAR EEKA 200150Z NIL=
Kärdla lennuväli
EEKE Kuressaare lennuväli
METAR EEKE 200150Z AUTO 22008KT 190V260 9999NDV FEW015 SCT018 17/15 Q1014=
Kuressaare lennuväli
EEPU Pärnu lennuväli
METAR EEPU 200150Z NIL=
Pärnu lennuväli
EETU Tartu lennuväli
FCEO32 EETN 192000 AAA
TAF AMD EETU 200000Z 1921/2003 CNL=

METAR EETU 200150Z AUTO 23006KT 9999 NCD 15/14 Q1015=
Tartu lennuväli
EEEI Ämari lennuväli
METAR EEEI 200150Z AUTO 19008KT 9999 FEW024 15/15 Q1013=
Ämari lennuväli